25 september 2022

Tijd Code Weer Temp. Zicht Plafond Wind METAR/SPECI
12:20
V
14 °C 10 km+ 7.600 ft 350° 350° 10 kt METAR ETMN 251020Z 35010KT 9999 FEW020 BKN076 14/09 Q1013 BLU BLU+ TEMPO WHT
11:20
V
14 °C 10 km+ 9.000 ft 020° 020° 9 kt METAR ETMN 250920Z 02009KT 9999 FEW019 BKN090 14/10 Q1013 BLU
10:20
V
14 °C 10 km+ - 010° 010° 10 kt METAR ETMN 250820Z 01010KT 9999 FEW017 SCT090 14/10 Q1013 BLU+
09:20
V
12 °C 10 km+ 9.000 ft 010° 010° 5 kt METAR ETMN 250720Z 01005KT 9999 FEW017 BKN090 12/11 Q1013 BLU
08:20
V
11 °C 10 km+ - 330° 330° 3 kt METAR ETMN 250620Z 33003KT 9999 FEW017 SCT090 11/10 Q1013 BLU+
07:20
V
12 °C 10 km+ 8.000 ft 350° 350° 5 kt METAR ETMN 250520Z 35005KT 9999 FEW020 SCT060 BKN080 12/10 Q1012 BLU
06:20
V
12 °C 10 km+ 6.000 ft 360° 360° 4 kt METAR ETMN 250420Z 36004KT 9999 BKN060 12/11 Q1012 BLU
05:20
V
12 °C 10 km+ 6.000 ft 360° 360° 5 kt METAR ETMN 250320Z 36005KT 9999 FEW010 OVC060 12/10 Q1013 BLU
04:20
V
12 °C 10 km+ 4.700 ft 350° 350° 6 kt METAR ETMN 250220Z 35006KT 9999 FEW012 OVC047 12/11 Q1013 BLU
03:20
V
12 °C 10 km+ 4.700 ft 360° 360° 6 kt METAR ETMN 250120Z 36006KT 9999 FEW012 OVC047 12/11 Q1013 BLU
02:20
V
12 °C 10 km+ 4.500 ft 360° 360° 6 kt METAR ETMN 250020Z 36006KT 9999 FEW012 OVC045 12/11 Q1013 BLU
01:20
V
12 °C 10 km+ 4.100 ft 010° 010° 3 kt METAR ETMN 242320Z 01003KT 9999 FEW015 OVC041 12/11 Q1013 BLU
00:20
V
12 °C 10 km+ 4.000 ft 360° 360° 5 kt METAR ETMN 242220Z 36005KT 9999 FEW015 OVC040 12/11 Q1013 BLU

24 september 2022

Tijd Code Weer Temp. Zicht Plafond Wind METAR/SPECI
23:20
V
12 °C 10 km+ 3.800 ft 030° 030° 5 kt METAR ETMN 242120Z 03005KT 9999 FEW025 OVC038 12/11 Q1013 BLU
22:20
M
12 °C 10 km+ 2.800 ft 010° 010° 5 kt METAR ETMN 242020Z 01005KT 9999 SCT013 OVC028 12/11 Q1013 BLU
22:07
M
12 °C 10 km+ 2.500 ft 010° 010° 5 kt METAR ETMN 242007Z 01005KT 9999 OVC025 12/11 Q1013 BLU
21:20
M
12 °C 8 km 1.900 ft 010° 010° 7 kt METAR ETMN 241920Z 01007KT 8000 -DZ FEW004 OVC019 12/12 Q1013 WHT
21:02
M
12 °C 5 km 1.700 ft 020° 020° 8 kt METAR ETMN 241902Z 02008KT 5000 -DZRA BR SCT004 OVC017 12/12 Q1013 WHT
20:20
M
12 °C 5 km 1.000 ft 020° 020° 8 kt METAR ETMN 241820Z 02008KT 5000 -DZRA BR FEW004 BKN010 BKN017 12/11 Q1013 GRN
19:20
I
12 °C 3,5 km 600 ft 010° 010° 10 kt METAR ETMN 241720Z 01010KT 3500 -DZRA BR SCT002 BKN006 12/12 Q1012 RERA YLO
18:20
I
12 °C 4 km 700 ft 010° 010° 12 kt METAR ETMN 241620Z 01012KT 4000 RADZ BR SCT001 BKN007 12/12 Q1012 GRN
17:20
L
13 °C 3 km 100 ft 010° 010° 9 kt METAR ETMN 241520Z 01009KT 3000 RADZ BR BKN001 BKN007 13/12 Q1011 REDZ RED
17:06
L
13 °C 2 km 100 ft 020° 020° 8 kt METAR ETMN 241506Z 02008KT 2000 DZRA BR BKN001 13/12 Q1011 RED
16:20
L
13 °C 1,5 km 100 ft 060° 060° 2 kt METAR ETMN 241420Z 06002KT 1500 DZRA BR OVC001 13/13 Q1012 RED
15:20
L
13 °C 1,5 km 100 ft 080° 080° 2 kt METAR ETMN 241320Z 08002KT 1500 DZRA BR OVC001 13/13 Q1011 RED
14:20
L
13 °C 2 km 400 ft 130° 130° 2 kt METAR ETMN 241220Z 13002KT 2000 -DZRA BR SCT001 OVC004 13/13 Q1011 YLO
13:20
I
13 °C 3 km 500 ft 160° 160° 3 kt METAR ETMN 241120Z 16003KT 3000 -DZRA BR SCT003 OVC005 13/12 Q1011 YLO
12:20
I
13 °C 3,5 km 600 ft 200° 200° 4 kt METAR ETMN 241020Z 20004KT 3500 -RADZ BR OVC006 13/13 Q1011 YLO
11:20
I
13 °C 3 km 500 ft 200° 200° 5 kt METAR ETMN 240920Z 20005KT 3000 -RA BR BKN005 OVC008 13/13 Q1011 YLO
10:20
L
13 °C 2,5 km 300 ft 180° 180° 3 kt METAR ETMN 240820Z 18003KT 2500 -RA BR OVC003 13/12 Q1011 YLO
09:20
L
12 °C 2,5 km 200 ft 160° 160° 5 kt METAR ETMN 240720Z 16005KT 2500 BR BKN002 OVC005 12/12 Q1011 AMB
08:20
L
12 °C 2 km 100 ft 150° 150° 5 kt METAR ETMN 240620Z 15005KT 2000 BR OVC001 12/11 Q1011 RED
07:20
L
11 °C 1,8 km 100 ft 120° 120° 4 kt METAR ETMN 240520Z 12004KT 1800 -RADZ BR BKN001 OVC006 11/11 Q1011 RERA RED
06:20
L
11 °C 2 km 100 ft 140° 140° 4 kt METAR ETMN 240420Z 14004KT 2000 -RADZ BR BKN001 OVC006 11/11 Q1011 RERA RED
05:41
I
11 °C 2,5 km 900 ft 130° 130° 5 kt METAR ETMN 240341Z 13005KT 2500 RADZ BR SCT001 OVC009 11/11 Q1011 YLO
05:20
I
11 °C 3,5 km 800 ft 130° 130° 4 kt METAR ETMN 240320Z 13004KT 3500 RA BR SCT001 BKN008 11/11 Q1011 YLO
04:20
I
11 °C 4 km 2.300 ft 160° 160° 5 kt METAR ETMN 240220Z 16005KT 4000 -RA BR FEW002 BKN023 11/11 Q1011 GRN
03:20
M
12 °C 6 km 3.800 ft 180° 180° 3 kt METAR ETMN 240120Z 18003KT 6000 -RA FEW025 BKN038 12/11 Q1012 WHT
02:20
M
12 °C 10 km+ 2.500 ft 200° 200° 5 kt METAR ETMN 240020Z 20005KT 9999 -RA BKN025 12/11 Q1012 BLU
01:20
V
13 °C 10 km+ 3.300 ft 230° 230° 4 kt METAR ETMN 232320Z 23004KT 9999 BKN033 13/10 Q1012 BLU
00:20
V
13 °C 10 km+ 5.000 ft 220° 220° 4 kt METAR ETMN 232220Z 22004KT 9999 BKN050 13/10 Q1013 BLU

23 september 2022

Tijd Code Weer Temp. Zicht Plafond Wind METAR/SPECI
23:20
V
12 °C 10 km+ 12.000 ft 210° 210° 3 kt METAR ETMN 232120Z 21003KT 9999 SCT050 BKN120 12/08 Q1013 BLU
22:20
V
13 °C 10 km+ 12.000 ft 210° 210° 4 kt METAR ETMN 232020Z 21004KT 9999 FEW090 BKN120 13/08 Q1013 BLU
22:00
V
13 °C 10 km+ 12.000 ft 210° 210° 4 kt METAR ETMN 232000Z 21004KT 9999 FEW090 BKN120 13/08 Q1013 BLU FCST CNL
21:20
V
13 °C 10 km+ 12.000 ft 220° 220° 4 kt METAR ETMN 231920Z 22004KT 9999 FEW050 BKN120 13/09 Q1013 BLU BLU
20:20
V
14 °C 10 km+ 5.000 ft 210° 210° 4 kt METAR ETMN 231820Z 21004KT 9999 BKN050 BKN130 14/09 Q1013 BLU BLU
19:20
V
14 °C 10 km+ 9.300 ft 160° 160° 3 kt METAR ETMN 231720Z 16003KT 9999 BKN093 BKN140 BKN190 14/09 Q1013 BLU BLU
18:20
V
15 °C 10 km+ 9.500 ft 200° 200° 3 kt METAR ETMN 231620Z 20003KT 9999 BKN095 BKN170 15/09 Q1013 BLU BLU
17:20
V
16 °C 10 km+ 10.000 ft 210° 210° 4 kt METAR ETMN 231520Z 21004KT 9999 BKN100 BKN140 BKN190 16/08 Q1014 BLU BLU
16:20
V
16 °C 10 km+ 9.000 ft 210° 210° 5 kt METAR ETMN 231420Z 21005KT 9999 BKN090 OVC140 16/08 Q1014 BLU BLU
15:20
V
16 °C 10 km+ 10.000 ft 210° 210° 7 kt METAR ETMN 231320Z 21007KT 9999 BKN100 BKN130 16/08 Q1014 BLU BLU
14:20
V
16 °C 10 km+ 11.000 ft 220° 220° 5 kt METAR ETMN 231220Z 22005KT 9999 BKN110 OVC140 16/08 Q1015 BLU BLU
13:20
V
16 °C 10 km+ 12.000 ft 200° 200° 7 kt METAR ETMN 231120Z 20007KT 9999 BKN120 OVC200 16/07 Q1015 BLU BLU
Oudere gegevens

Met cookies volgen wij en derde partijen jouw internetgedrag binnen onze site. Als je verdergaat gaan we ervan uit dat je dit goedvindt. Meer info